sensor_id;sensor_type;location;lat;lon;timestamp;pressure;altitude;pressure_sealevel;temperature;humidity
28683;BME280;15862;43.062;25.626;2023-01-28T00:00:27;99690.16;;;1.43;100.00
28683;BME280;15862;43.062;25.626;2023-01-28T00:02:52;99683.59;;;1.38;100.00
28683;BME280;15862;43.062;25.626;2023-01-28T00:05:17;99679.72;;;1.29;100.00
28683;BME280;15862;43.062;25.626;2023-01-28T00:07:43;99687.97;;;1.34;100.00
28683;BME280;15862;43.062;25.626;2023-01-28T00:10:09;99674.72;;;1.26;100.00
28683;BME280;15862;43.062;25.626;2023-01-28T00:12:34;99672.97;;;1.28;100.00
28683;BME280;15862;43.062;25.626;2023-01-28T00:15:00;99680.97;;;1.39;100.00
28683;BME280;15862;43.062;25.626;2023-01-28T00:17:25;99695.25;;;1.43;100.00
28683;BME280;15862;43.062;25.626;2023-01-28T00:19:51;99689.63;;;1.35;100.00
28683;BME280;15862;43.062;25.626;2023-01-28T00:22:16;99701.41;;;1.38;100.00
28683;BME280;15862;43.062;25.626;2023-01-28T00:24:42;99699.91;;;1.32;100.00
28683;BME280;15862;43.062;25.626;2023-01-28T00:27:07;99710.94;;;1.33;100.00
28683;BME280;15862;43.062;25.626;2023-01-28T00:29:33;99699.91;;;1.32;100.00
28683;BME280;15862;43.062;25.626;2023-01-28T00:31:58;99676.63;;;1.21;100.00
28683;BME280;15862;43.062;25.626;2023-01-28T00:34:24;99705.59;;;1.39;100.00
28683;BME280;15862;43.062;25.626;2023-01-28T00:36:49;99703.69;;;1.44;100.00
28683;BME280;15862;43.062;25.626;2023-01-28T00:39:23;99711.38;;;1.42;100.00
28683;BME280;15862;43.062;25.626;2023-01-28T00:41:49;99713.38;;;1.55;100.00
28683;BME280;15862;43.062;25.626;2023-01-28T00:44:15;99716.03;;;1.52;100.00
28683;BME280;15862;43.062;25.626;2023-01-28T00:46:40;99722.16;;;1.49;100.00
28683;BME280;15862;43.062;25.626;2023-01-28T00:49:06;99718.25;;;1.40;100.00
28683;BME280;15862;43.062;25.626;2023-01-28T00:51:32;99714.22;;;1.35;100.00
28683;BME280;15862;43.062;25.626;2023-01-28T00:53:58;99712.88;;;1.26;100.00
28683;BME280;15862;43.062;25.626;2023-01-28T00:56:23;99720.16;;;1.35;100.00
28683;BME280;15862;43.062;25.626;2023-01-28T00:58:49;99710.81;;;1.14;100.00
28683;BME280;15862;43.062;25.626;2023-01-28T01:01:17;99728.38;;;1.20;100.00
28683;BME280;15862;43.062;25.626;2023-01-28T01:03:43;99710.38;;;1.05;100.00
28683;BME280;15862;43.062;25.626;2023-01-28T01:06:09;99723.56;;;1.13;100.00
28683;BME280;15862;43.062;25.626;2023-01-28T01:08:35;99733.00;;;1.11;100.00
28683;BME280;15862;43.062;25.626;2023-01-28T01:11:05;99734.69;;;1.10;100.00
28683;BME280;15862;43.062;25.626;2023-01-28T01:13:32;99736.38;;;1.11;100.00
28683;BME280;15862;43.062;25.626;2023-01-28T01:16:03;99736.00;;;1.20;100.00
28683;BME280;15862;43.062;25.626;2023-01-28T01:18:28;99735.91;;;1.23;100.00
28683;BME280;15862;43.062;25.626;2023-01-28T01:20:54;99738.31;;;1.26;100.00
28683;BME280;15862;43.062;25.626;2023-01-28T01:23:27;99732.44;;;1.24;100.00
28683;BME280;15862;43.062;25.626;2023-01-28T01:25:53;99733.22;;;1.26;100.00
28683;BME280;15862;43.062;25.626;2023-01-28T01:28:19;99729.72;;;1.29;100.00
28683;BME280;15862;43.062;25.626;2023-01-28T01:30:45;99724.72;;;1.27;100.00
28683;BME280;15862;43.062;25.626;2023-01-28T01:33:11;99729.91;;;1.24;100.00
28683;BME280;15862;43.062;25.626;2023-01-28T01:35:37;99728.03;;;1.29;100.00
28683;BME280;15862;43.062;25.626;2023-01-28T01:38:02;99723.84;;;1.28;100.00
28683;BME280;15862;43.062;25.626;2023-01-28T01:40:28;99724.53;;;1.32;100.00
28683;BME280;15862;43.062;25.626;2023-01-28T01:42:54;99727.00;;;1.33;100.00
28683;BME280;15862;43.062;25.626;2023-01-28T01:45:19;99725.50;;;1.29;100.00
28683;BME280;15862;43.062;25.626;2023-01-28T01:50:33;99734.28;;;1.42;100.00
28683;BME280;15862;43.062;25.626;2023-01-28T01:53:02;99731.41;;;1.30;100.00
28683;BME280;15862;43.062;25.626;2023-01-28T01:55:32;99720.22;;;1.12;100.00
28683;BME280;15862;43.062;25.626;2023-01-28T01:58:03;99740.09;;;1.24;100.00
28683;BME280;15862;43.062;25.626;2023-01-28T02:00:30;99712.69;;;1.09;100.00
28683;BME280;15862;43.062;25.626;2023-01-28T02:02:55;99740.84;;;1.26;100.00
28683;BME280;15862;43.062;25.626;2023-01-28T02:05:23;99743.16;;;1.32;100.00
28683;BME280;15862;43.062;25.626;2023-01-28T02:07:51;99748.78;;;1.40;100.00
28683;BME280;15862;43.062;25.626;2023-01-28T02:10:38;99753.50;;;1.49;100.00
28683;BME280;15862;43.062;25.626;2023-01-28T02:13:04;99738.06;;;1.53;100.00
28683;BME280;15862;43.062;25.626;2023-01-28T02:15:29;99743.84;;;1.57;100.00
28683;BME280;15862;43.062;25.626;2023-01-28T02:17:55;99741.31;;;1.57;100.00
28683;BME280;15862;43.062;25.626;2023-01-28T02:26:06;99749.84;;;1.56;100.00
28683;BME280;15862;43.062;25.626;2023-01-28T02:29:10;99760.97;;;1.53;100.00
28683;BME280;15862;43.062;25.626;2023-01-28T02:31:48;99767.28;;;1.44;100.00
28683;BME280;15862;43.062;25.626;2023-01-28T02:39:50;99748.66;;;1.22;100.00
28683;BME280;15862;43.062;25.626;2023-01-28T02:42:27;99757.56;;;1.12;100.00
28683;BME280;15862;43.062;25.626;2023-01-28T02:44:53;99772.41;;;1.22;100.00
28683;BME280;15862;43.062;25.626;2023-01-28T02:47:19;99772.09;;;1.30;100.00
28683;BME280;15862;43.062;25.626;2023-01-28T02:50:18;99776.47;;;1.26;100.00
28683;BME280;15862;43.062;25.626;2023-01-28T02:55:44;99785.41;;;1.36;100.00
28683;BME280;15862;43.062;25.626;2023-01-28T03:06:12;99785.25;;;1.41;100.00
28683;BME280;15862;43.062;25.626;2023-01-28T03:08:50;99761.44;;;1.20;100.00
28683;BME280;15862;43.062;25.626;2023-01-28T03:11:39;99781.06;;;1.38;100.00
28683;BME280;15862;43.062;25.626;2023-01-28T03:14:25;99791.38;;;1.35;100.00
28683;BME280;15862;43.062;25.626;2023-01-28T03:17:25;99787.28;;;1.31;100.00
28683;BME280;15862;43.062;25.626;2023-01-28T03:20:11;99790.91;;;1.47;100.00
28683;BME280;15862;43.062;25.626;2023-01-28T03:23:02;99771.81;;;1.37;100.00
28683;BME280;15862;43.062;25.626;2023-01-28T03:25:53;99770.09;;;1.38;100.00
28683;BME280;15862;43.062;25.626;2023-01-28T03:28:38;99775.25;;;1.36;100.00
28683;BME280;15862;43.062;25.626;2023-01-28T03:31:23;99791.50;;;1.32;100.00
28683;BME280;15862;43.062;25.626;2023-01-28T03:34:10;99783.84;;;1.32;100.00
28683;BME280;15862;43.062;25.626;2023-01-28T03:36:55;99780.44;;;1.33;100.00
28683;BME280;15862;43.062;25.626;2023-01-28T03:39:24;99797.28;;;1.36;100.00
28683;BME280;15862;43.062;25.626;2023-01-28T03:42:08;99771.28;;;1.29;100.00
28683;BME280;15862;43.062;25.626;2023-01-28T03:44:34;99803.66;;;1.24;100.00
28683;BME280;15862;43.062;25.626;2023-01-28T03:47:15;99800.00;;;1.31;100.00
28683;BME280;15862;43.062;25.626;2023-01-28T03:49:45;99795.22;;;1.24;100.00
28683;BME280;15862;43.062;25.626;2023-01-28T03:52:16;99800.31;;;1.24;100.00
28683;BME280;15862;43.062;25.626;2023-01-28T03:54:46;99801.25;;;1.21;100.00
28683;BME280;15862;43.062;25.626;2023-01-28T03:57:16;99812.16;;;1.25;100.00
28683;BME280;15862;43.062;25.626;2023-01-28T03:59:43;99801.13;;;1.24;100.00
28683;BME280;15862;43.062;25.626;2023-01-28T04:02:10;99813.09;;;1.22;100.00
28683;BME280;15862;43.062;25.626;2023-01-28T04:04:37;99808.41;;;1.33;100.00
28683;BME280;15862;43.062;25.626;2023-01-28T04:07:03;99813.34;;;1.38;100.00
28683;BME280;15862;43.062;25.626;2023-01-28T04:09:28;99810.19;;;1.31;100.00
28683;BME280;15862;43.062;25.626;2023-01-28T04:11:53;99812.72;;;1.31;100.00
28683;BME280;15862;43.062;25.626;2023-01-28T04:14:19;99794.44;;;1.22;100.00
28683;BME280;15862;43.062;25.626;2023-01-28T04:16:44;99814.16;;;1.38;100.00
28683;BME280;15862;43.062;25.626;2023-01-28T04:19:10;99819.13;;;1.41;100.00
28683;BME280;15862;43.062;25.626;2023-01-28T04:21:37;99807.97;;;1.45;100.00
28683;BME280;15862;43.062;25.626;2023-01-28T04:24:03;99818.19;;;1.44;100.00
28683;BME280;15862;43.062;25.626;2023-01-28T04:26:28;99797.75;;;1.24;100.00
28683;BME280;15862;43.062;25.626;2023-01-28T04:28:54;99816.19;;;1.30;100.00
28683;BME280;15862;43.062;25.626;2023-01-28T04:31:19;99816.69;;;1.38;100.00
28683;BME280;15862;43.062;25.626;2023-01-28T04:33:44;99811.50;;;1.41;100.00
28683;BME280;15862;43.062;25.626;2023-01-28T04:36:10;99812.84;;;1.28;100.00
28683;BME280;15862;43.062;25.626;2023-01-28T04:38:35;99811.84;;;1.32;100.00
28683;BME280;15862;43.062;25.626;2023-01-28T04:41:01;99816.69;;;1.38;100.00
28683;BME280;15862;43.062;25.626;2023-01-28T04:43:26;99811.84;;;1.32;100.00
28683;BME280;15862;43.062;25.626;2023-01-28T04:45:51;99826.94;;;1.37;100.00
28683;BME280;15862;43.062;25.626;2023-01-28T04:48:17;99827.97;;;1.31;100.00
28683;BME280;15862;43.062;25.626;2023-01-28T04:50:43;99835.41;;;1.37;100.00
28683;BME280;15862;43.062;25.626;2023-01-28T04:53:09;99839.66;;;1.37;100.00
28683;BME280;15862;43.062;25.626;2023-01-28T04:55:35;99840.25;;;1.43;100.00
28683;BME280;15862;43.062;25.626;2023-01-28T04:58:01;99842.03;;;1.41;100.00
28683;BME280;15862;43.062;25.626;2023-01-28T05:00:26;99854.56;;;1.46;100.00
28683;BME280;15862;43.062;25.626;2023-01-28T05:02:52;99859.66;;;1.46;100.00
28683;BME280;15862;43.062;25.626;2023-01-28T05:05:17;99856.06;;;1.51;100.00
28683;BME280;15862;43.062;25.626;2023-01-28T05:07:46;99846.16;;;1.44;100.00
28683;BME280;15862;43.062;25.626;2023-01-28T05:10:14;99857.66;;;1.53;100.00
28683;BME280;15862;43.062;25.626;2023-01-28T05:12:43;99850.31;;;1.46;100.00
28683;BME280;15862;43.062;25.626;2023-01-28T05:15:08;99866.88;;;1.56;100.00
28683;BME280;15862;43.062;25.626;2023-01-28T05:17:33;99869.53;;;1.53;100.00
28683;BME280;15862;43.062;25.626;2023-01-28T05:19:59;99866.81;;;1.36;100.00
28683;BME280;15862;43.062;25.626;2023-01-28T05:22:24;99866.03;;;1.34;100.00
28683;BME280;15862;43.062;25.626;2023-01-28T05:24:50;99882.72;;;1.41;100.00
28683;BME280;15862;43.062;25.626;2023-01-28T05:27:15;99885.44;;;1.37;100.00
28683;BME280;15862;43.062;25.626;2023-01-28T05:29:40;99879.00;;;1.28;100.00
28683;BME280;15862;43.062;25.626;2023-01-28T05:32:06;99869.94;;;1.21;100.00
28683;BME280;15862;43.062;25.626;2023-01-28T05:34:31;99891.16;;;1.20;100.00
28683;BME280;15862;43.062;25.626;2023-01-28T05:36:57;99881.25;;;1.13;100.00
28683;BME280;15862;43.062;25.626;2023-01-28T05:39:22;99902.22;;;1.19;100.00
28683;BME280;15862;43.062;25.626;2023-01-28T05:41:47;99895.06;;;1.06;100.00
28683;BME280;15862;43.062;25.626;2023-01-28T05:44:13;99903.22;;;1.15;100.00
28683;BME280;15862;43.062;25.626;2023-01-28T05:46:38;99906.56;;;1.16;100.00
28683;BME280;15862;43.062;25.626;2023-01-28T05:49:09;99911.41;;;1.23;100.00
28683;BME280;15862;43.062;25.626;2023-01-28T05:51:38;99910.16;;;1.33;100.00
28683;BME280;15862;43.062;25.626;2023-01-28T05:54:04;99899.00;;;1.37;100.00
28683;BME280;15862;43.062;25.626;2023-01-28T05:56:29;99908.16;;;1.41;100.00
28683;BME280;15862;43.062;25.626;2023-01-28T05:58:55;99904.75;;;1.42;100.00
28683;BME280;15862;43.062;25.626;2023-01-28T06:01:20;99911.50;;;1.43;100.00
28683;BME280;15862;43.062;25.626;2023-01-28T06:03:46;99906.28;;;1.46;100.00
28683;BME280;15862;43.062;25.626;2023-01-28T06:06:11;99912.47;;;1.39;100.00
28683;BME280;15862;43.062;25.626;2023-01-28T06:08:36;99923.34;;;1.44;100.00
28683;BME280;15862;43.062;25.626;2023-01-28T06:11:02;99924.09;;;1.46;100.00
28683;BME280;15862;43.062;25.626;2023-01-28T06:13:27;99928.06;;;1.53;100.00
28683;BME280;15862;43.062;25.626;2023-01-28T06:15:53;99931.38;;;1.55;100.00
28683;BME280;15862;43.062;25.626;2023-01-28T06:18:18;99903.00;;;1.43;100.00
28683;BME280;15862;43.062;25.626;2023-01-28T06:20:43;99929.50;;;1.60;100.00
28683;BME280;15862;43.062;25.626;2023-01-28T06:23:09;99934.81;;;1.54;100.00
28683;BME280;15862;43.062;25.626;2023-01-28T06:25:34;99945.53;;;1.62;100.00
28683;BME280;15862;43.062;25.626;2023-01-28T06:28:00;99944.66;;;1.63;100.00
28683;BME280;15862;43.062;25.626;2023-01-28T06:30:25;99948.72;;;1.68;100.00
28683;BME280;15862;43.062;25.626;2023-01-28T06:32:54;99951.41;;;1.64;100.00
28683;BME280;15862;43.062;25.626;2023-01-28T06:35:20;99950.69;;;1.60;100.00
28683;BME280;15862;43.062;25.626;2023-01-28T06:37:45;99958.41;;;1.59;100.00
28683;BME280;15862;43.062;25.626;2023-01-28T06:40:11;99955.56;;;1.44;100.00
28683;BME280;15862;43.062;25.626;2023-01-28T06:42:37;99965.34;;;1.54;100.00
28683;BME280;15862;43.062;25.626;2023-01-28T06:45:02;99980.63;;;1.54;100.00
28683;BME280;15862;43.062;25.626;2023-01-28T06:47:28;99980.59;;;1.55;100.00
28683;BME280;15862;43.062;25.626;2023-01-28T06:49:53;99977.41;;;1.49;100.00
28683;BME280;15862;43.062;25.626;2023-01-28T06:52:19;99979.19;;;1.47;100.00
28683;BME280;15862;43.062;25.626;2023-01-28T06:54:44;99976.31;;;1.56;100.00
28683;BME280;15862;43.062;25.626;2023-01-28T06:57:09;99991.19;;;1.66;100.00
28683;BME280;15862;43.062;25.626;2023-01-28T06:59:35;99982.19;;;1.58;100.00
28683;BME280;15862;43.062;25.626;2023-01-28T07:02:00;99991.44;;;1.60;100.00
28683;BME280;15862;43.062;25.626;2023-01-28T07:04:26;99976.22;;;1.59;100.00
28683;BME280;15862;43.062;25.626;2023-01-28T07:06:51;99991.91;;;1.70;100.00
28683;BME280;15862;43.062;25.626;2023-01-28T07:09:16;99989.38;;;1.70;100.00
28683;BME280;15862;43.062;25.626;2023-01-28T07:11:42;99987.47;;;1.75;100.00
28683;BME280;15862;43.062;25.626;2023-01-28T07:14:07;99985.16;;;1.69;100.00
28683;BME280;15862;43.062;25.626;2023-01-28T07:16:32;99972.97;;;1.55;100.00
28683;BME280;15862;43.062;25.626;2023-01-28T07:18:58;99988.09;;;1.58;100.00
28683;BME280;15862;43.062;25.626;2023-01-28T07:21:23;99971.88;;;1.61;100.00
28683;BME280;15862;43.062;25.626;2023-01-28T07:23:49;100001.31;;;1.68;100.00
28683;BME280;15862;43.062;25.626;2023-01-28T07:26:15;99995.41;;;1.67;100.00
28683;BME280;15862;43.062;25.626;2023-01-28T07:28:40;100000.25;;;1.73;100.00
28683;BME280;15862;43.062;25.626;2023-01-28T07:31:06;99980.75;;;1.74;100.00
28683;BME280;15862;43.062;25.626;2023-01-28T07:33:31;99994.78;;;1.84;100.00
28683;BME280;15862;43.062;25.626;2023-01-28T07:35:56;99985.38;;;1.86;100.00
28683;BME280;15862;43.062;25.626;2023-01-28T07:38:22;99986.25;;;1.85;100.00
28683;BME280;15862;43.062;25.626;2023-01-28T07:40:47;100004.06;;;2.08;100.00
28683;BME280;15862;43.062;25.626;2023-01-28T07:43:13;100007.38;;;2.10;100.00
28683;BME280;15862;43.062;25.626;2023-01-28T07:45:38;100003.72;;;2.17;100.00
28683;BME280;15862;43.062;25.626;2023-01-28T07:48:06;100002.16;;;2.34;100.00
28683;BME280;15862;43.062;25.626;2023-01-28T07:50:34;99990.97;;;2.38;100.00
28683;BME280;15862;43.062;25.626;2023-01-28T07:53:05;99984.16;;;2.38;100.00
28683;BME280;15862;43.062;25.626;2023-01-28T07:55:31;99986.88;;;2.34;100.00
28683;BME280;15862;43.062;25.626;2023-01-28T07:58:00;100000.63;;;2.51;100.00
28683;BME280;15862;43.062;25.626;2023-01-28T08:00:28;100000.38;;;2.57;100.00
28683;BME280;15862;43.062;25.626;2023-01-28T08:02:58;100002.56;;;2.45;100.00
28683;BME280;15862;43.062;25.626;2023-01-28T08:05:25;100000.97;;;2.42;100.00
28683;BME280;15862;43.062;25.626;2023-01-28T08:07:54;100006.53;;;2.52;100.00
28683;BME280;15862;43.062;25.626;2023-01-28T08:10:19;99999.84;;;2.49;100.00
28683;BME280;15862;43.062;25.626;2023-01-28T08:15:17;99996.03;;;2.59;100.00
28683;BME280;15862;43.062;25.626;2023-01-28T08:17:43;99997.63;;;2.62;100.00
28683;BME280;15862;43.062;25.626;2023-01-28T08:20:09;99999.66;;;2.54;100.00
28683;BME280;15862;43.062;25.626;2023-01-28T08:22:34;99995.88;;;2.42;100.00
28683;BME280;15862;43.062;25.626;2023-01-28T08:25:00;100000.72;;;2.48;100.00
28683;BME280;15862;43.062;25.626;2023-01-28T08:27:25;100006.66;;;2.49;100.00
28683;BME280;15862;43.062;25.626;2023-01-28T08:29:51;100015.31;;;2.66;100.00
28683;BME280;15862;43.062;25.626;2023-01-28T08:32:16;100002.81;;;2.80;100.00
28683;BME280;15862;43.062;25.626;2023-01-28T08:34:42;100000.03;;;2.86;100.00
28683;BME280;15862;43.062;25.626;2023-01-28T08:37:07;100008.53;;;2.87;100.00
28683;BME280;15862;43.062;25.626;2023-01-28T08:39:32;100006.28;;;2.99;100.00
28683;BME280;15862;43.062;25.626;2023-01-28T08:41:58;99976.19;;;2.67;100.00
28683;BME280;15862;43.062;25.626;2023-01-28T08:44:23;99995.81;;;2.85;100.00
28683;BME280;15862;43.062;25.626;2023-01-28T08:46:49;99995.88;;;2.84;100.00
28683;BME280;15862;43.062;25.626;2023-01-28T08:49:14;99999.06;;;2.89;100.00
28683;BME280;15862;43.062;25.626;2023-01-28T08:51:39;99987.97;;;2.90;100.00
28683;BME280;15862;43.062;25.626;2023-01-28T08:54:05;99999.56;;;2.97;100.00
28683;BME280;15862;43.062;25.626;2023-01-28T08:56:30;99987.91;;;3.11;100.00
28683;BME280;15862;43.062;25.626;2023-01-28T08:58:55;99984.56;;;3.29;100.00
28683;BME280;15862;43.062;25.626;2023-01-28T09:01:21;99992.59;;;3.40;100.00
28683;BME280;15862;43.062;25.626;2023-01-28T09:03:46;99984.94;;;3.40;100.00
28683;BME280;15862;43.062;25.626;2023-01-28T09:06:12;99993.09;;;3.48;100.00
28683;BME280;15862;43.062;25.626;2023-01-28T09:08:37;99993.22;;;3.45;100.00
28683;BME280;15862;43.062;25.626;2023-01-28T09:11:03;99991.84;;;3.38;100.00
28683;BME280;15862;43.062;25.626;2023-01-28T09:13:28;99990.69;;;3.45;100.00
28683;BME280;15862;43.062;25.626;2023-01-28T09:15:54;99961.47;;;3.32;100.00
28683;BME280;15862;43.062;25.626;2023-01-28T09:18:20;99989.50;;;3.52;100.00
28683;BME280;15862;43.062;25.626;2023-01-28T09:20:46;99992.56;;;3.60;100.00
28683;BME280;15862;43.062;25.626;2023-01-28T09:23:13;99985.38;;;3.68;100.00
28683;BME280;15862;43.062;25.626;2023-01-28T09:25:38;99968.53;;;3.82;100.00
28683;BME280;15862;43.062;25.626;2023-01-28T09:28:04;99957.38;;;3.66;100.00
28683;BME280;15862;43.062;25.626;2023-01-28T09:30:30;99983.94;;;3.62;100.00
28683;BME280;15862;43.062;25.626;2023-01-28T09:32:56;99975.28;;;3.46;100.00
28683;BME280;15862;43.062;25.626;2023-01-28T09:35:23;99986.47;;;3.44;100.00
28683;BME280;15862;43.062;25.626;2023-01-28T09:37:48;99988.25;;;3.42;100.00
28683;BME280;15862;43.062;25.626;2023-01-28T09:40:33;99988.41;;;3.39;100.00
28683;BME280;15862;43.062;25.626;2023-01-28T09:43:30;99989.63;;;3.30;100.00
28683;BME280;15862;43.062;25.626;2023-01-28T09:45:59;99965.56;;;3.16;100.00
28683;BME280;15862;43.062;25.626;2023-01-28T09:48:29;99965.97;;;3.07;100.00
28683;BME280;15862;43.062;25.626;2023-01-28T09:50:58;99985.72;;;3.22;100.00
28683;BME280;15862;43.062;25.626;2023-01-28T09:53:38;99966.63;;;3.12;100.00
28683;BME280;15862;43.062;25.626;2023-01-28T09:56:28;99991.47;;;3.07;100.00
28683;BME280;15862;43.062;25.626;2023-01-28T09:58:57;99993.91;;;3.10;100.00
28683;BME280;15862;43.062;25.626;2023-01-28T10:04:32;99999.97;;;3.07;100.00
28683;BME280;15862;43.062;25.626;2023-01-28T10:10:11;99987.50;;;3.20;100.00
28683;BME280;15862;43.062;25.626;2023-01-28T10:15:46;99999.78;;;3.12;100.00
28683;BME280;15862;43.062;25.626;2023-01-28T10:18:14;100000.25;;;3.20;100.00
28683;BME280;15862;43.062;25.626;2023-01-28T10:25:45;99972.94;;;2.84;100.00
28683;BME280;15862;43.062;25.626;2023-01-28T10:28:24;99997.69;;;3.02;100.00
28683;BME280;15862;43.062;25.626;2023-01-28T10:30:51;99997.41;;;3.07;100.00
28683;BME280;15862;43.062;25.626;2023-01-28T10:35:53;99993.53;;;3.19;100.00
28683;BME280;15862;43.062;25.626;2023-01-28T10:38:22;99994.03;;;3.27;100.00
28683;BME280;15862;43.062;25.626;2023-01-28T10:40:49;99965.88;;;3.28;100.00
28683;BME280;15862;43.062;25.626;2023-01-28T10:43:20;99993.16;;;3.46;100.00
28683;BME280;15862;43.062;25.626;2023-01-28T10:48:37;99982.91;;;3.48;100.00
28683;BME280;15862;43.062;25.626;2023-01-28T10:51:06;99984.78;;;3.43;100.00
28683;BME280;15862;43.062;25.626;2023-01-28T10:53:42;99997.94;;;3.54;100.00
28683;BME280;15862;43.062;25.626;2023-01-28T10:56:24;100002.88;;;3.77;100.00
28683;BME280;15862;43.062;25.626;2023-01-28T11:01:37;99995.31;;;3.74;100.00
28683;BME280;15862;43.062;25.626;2023-01-28T11:04:04;99993.81;;;3.70;100.00
28683;BME280;15862;43.062;25.626;2023-01-28T11:06:29;99997.59;;;3.61;100.00
28683;BME280;15862;43.062;25.626;2023-01-28T11:08:55;99993.03;;;3.49;100.00
28683;BME280;15862;43.062;25.626;2023-01-28T11:11:27;99996.84;;;3.59;100.00
28683;BME280;15862;43.062;25.626;2023-01-28T11:13:53;99991.78;;;3.58;100.00
28683;BME280;15862;43.062;25.626;2023-01-28T11:16:23;99996.41;;;3.50;100.00
28683;BME280;15862;43.062;25.626;2023-01-28T11:19:02;99975.28;;;3.46;100.00
28683;BME280;15862;43.062;25.626;2023-01-28T11:21:30;99986.19;;;3.50;100.00
28683;BME280;15862;43.062;25.626;2023-01-28T11:23:59;99994.63;;;3.52;100.00
28683;BME280;15862;43.062;25.626;2023-01-28T11:26:35;99974.44;;;3.27;100.00
28683;BME280;15862;43.062;25.626;2023-01-28T11:29:02;99992.25;;;3.47;100.00
28683;BME280;15862;43.062;25.626;2023-01-28T11:31:28;99978.19;;;3.39;100.00
28683;BME280;15862;43.062;25.626;2023-01-28T11:36:23;99990.78;;;3.42;100.00
28683;BME280;15862;43.062;25.626;2023-01-28T11:38:59;99998.44;;;3.42;100.00
28683;BME280;15862;43.062;25.626;2023-01-28T11:41:31;100001.25;;;3.56;100.00
28683;BME280;15862;43.062;25.626;2023-01-28T11:43:58;99990.78;;;3.62;100.00
28683;BME280;15862;43.062;25.626;2023-01-28T11:46:46;99988.72;;;3.70;100.00
28683;BME280;15862;43.062;25.626;2023-01-28T11:54:23;100004.16;;;3.67;100.00
28683;BME280;15862;43.062;25.626;2023-01-28T12:10:38;99999.66;;;3.72;100.00
28683;BME280;15862;43.062;25.626;2023-01-28T12:26:47;99997.78;;;3.57;100.00
28683;BME280;15862;43.062;25.626;2023-01-28T12:29:29;99992.66;;;3.38;100.00
28683;BME280;15862;43.062;25.626;2023-01-28T12:43:11;100021.69;;;3.36;100.00
28683;BME280;15862;43.062;25.626;2023-01-28T12:45:43;100002.44;;;3.29;100.00
28683;BME280;15862;43.062;25.626;2023-01-28T12:51:06;100022.19;;;3.44;100.00
28683;BME280;15862;43.062;25.626;2023-01-28T12:53:39;100025.25;;;3.52;100.00
28683;BME280;15862;43.062;25.626;2023-01-28T12:56:16;100014.06;;;3.54;100.00
28683;BME280;15862;43.062;25.626;2023-01-28T12:58:57;100029.13;;;3.60;100.00
28683;BME280;15862;43.062;25.626;2023-01-28T13:01:41;100027.97;;;3.67;100.00
28683;BME280;15862;43.062;25.626;2023-01-28T13:09:25;100023.44;;;3.92;100.00
28683;BME280;15862;43.062;25.626;2023-01-28T13:11:53;100023.34;;;3.93;100.00
28683;BME280;15862;43.062;25.626;2023-01-28T13:14:25;100032.34;;;3.83;100.00
28683;BME280;15862;43.062;25.626;2023-01-28T13:16:52;100039.25;;;3.81;100.00
28683;BME280;15862;43.062;25.626;2023-01-28T13:21:43;100040.63;;;3.88;100.00
28683;BME280;15862;43.062;25.626;2023-01-28T13:26:48;100041.16;;;3.58;100.00
28683;BME280;15862;43.062;25.626;2023-01-28T13:31:42;100051.63;;;3.32;100.00
28683;BME280;15862;43.062;25.626;2023-01-28T13:34:28;100058.03;;;3.22;100.00
28683;BME280;15862;43.062;25.626;2023-01-28T13:36:55;100058.13;;;3.19;100.00
28683;BME280;15862;43.062;25.626;2023-01-28T13:39:23;100057.50;;;3.14;100.00
28683;BME280;15862;43.062;25.626;2023-01-28T13:41:53;100055.66;;;3.18;100.00
28683;BME280;15862;43.062;25.626;2023-01-28T13:46:51;100070.06;;;3.39;100.00
28683;BME280;15862;43.062;25.626;2023-01-28T13:49:21;100065.59;;;3.44;100.00
28683;BME280;15862;43.062;25.626;2023-01-28T13:52:03;100066.47;;;3.43;100.00
28683;BME280;15862;43.062;25.626;2023-01-28T13:54:34;100055.28;;;3.27;100.00
28683;BME280;15862;43.062;25.626;2023-01-28T13:59:59;100066.28;;;3.47;100.00
28683;BME280;15862;43.062;25.626;2023-01-28T14:02:43;100058.84;;;3.23;100.00
28683;BME280;15862;43.062;25.626;2023-01-28T14:19:19;100070.25;;;3.14;100.00
28683;BME280;15862;43.062;25.626;2023-01-28T14:21:48;100087.94;;;3.19;100.00
28683;BME280;15862;43.062;25.626;2023-01-28T14:24:17;100095.19;;;3.28;100.00
28683;BME280;15862;43.062;25.626;2023-01-28T14:32:20;100085.25;;;3.22;100.00
28683;BME280;15862;43.062;25.626;2023-01-28T14:34:48;100092.78;;;3.25;100.00
28683;BME280;15862;43.062;25.626;2023-01-28T14:37:17;100092.34;;;3.15;100.00
28683;BME280;15862;43.062;25.626;2023-01-28T14:39:51;100104.50;;;3.09;100.00
28683;BME280;15862;43.062;25.626;2023-01-28T14:42:27;100090.22;;;3.05;100.00
28683;BME280;15862;43.062;25.626;2023-01-28T14:48:06;100101.53;;;3.19;100.00
28683;BME280;15862;43.062;25.626;2023-01-28T14:58:52;100108.72;;;3.10;100.00
28683;BME280;15862;43.062;25.626;2023-01-28T15:01:27;100120.94;;;3.02;100.00
28683;BME280;15862;43.062;25.626;2023-01-28T15:03:53;100120.25;;;2.99;100.00
28683;BME280;15862;43.062;25.626;2023-01-28T15:06:24;100117.69;;;2.99;100.00
28683;BME280;15862;43.062;25.626;2023-01-28T15:08:51;100084.59;;;2.76;100.00
28683;BME280;15862;43.062;25.626;2023-01-28T15:11:21;100114.44;;;2.95;100.00
28683;BME280;15862;43.062;25.626;2023-01-28T15:13:50;100108.69;;;2.90;100.00
28683;BME280;15862;43.062;25.626;2023-01-28T15:16:21;100114.78;;;2.86;100.00
28683;BME280;15862;43.062;25.626;2023-01-28T15:18:48;100122.19;;;2.92;100.00
28683;BME280;15862;43.062;25.626;2023-01-28T15:21:19;100114.94;;;2.83;100.00
28683;BME280;15862;43.062;25.626;2023-01-28T15:23:48;100123.47;;;2.82;100.00